sensor_id;sensor_type;location;lat;lon;timestamp;P1;durP1;ratioP1;P2;durP2;ratioP2
61638;SDS011;47544;52.484;4.658;2022-10-22T00:00:12;9.55;;;6.00;;
61638;SDS011;47544;52.484;4.658;2022-10-22T00:00:24;10.73;;;6.50;;
61638;SDS011;47544;52.484;4.658;2022-10-22T00:00:35;11.60;;;6.70;;
61638;SDS011;47544;52.484;4.658;2022-10-22T00:00:49;10.55;;;6.45;;
61638;SDS011;47544;52.484;4.658;2022-10-22T00:01:09;10.25;;;6.13;;
61638;SDS011;47544;52.484;4.658;2022-10-22T00:01:20;11.02;;;6.00;;
61638;SDS011;47544;52.484;4.658;2022-10-22T00:01:31;10.45;;;5.90;;
61638;SDS011;47544;52.484;4.658;2022-10-22T00:01:42;9.05;;;6.03;;
61638;SDS011;47544;52.484;4.658;2022-10-22T00:01:56;7.65;;;5.95;;
61638;SDS011;47544;52.484;4.658;2022-10-22T00:02:07;8.55;;;6.03;;
61638;SDS011;47544;52.484;4.658;2022-10-22T00:02:22;10.60;;;6.13;;
61638;SDS011;47544;52.484;4.658;2022-10-22T00:02:37;11.02;;;6.45;;
61638;SDS011;47544;52.484;4.658;2022-10-22T00:02:48;11.00;;;6.53;;
61638;SDS011;47544;52.484;4.658;2022-10-22T00:02:59;11.35;;;6.60;;
61638;SDS011;47544;52.484;4.658;2022-10-22T00:03:10;10.27;;;6.45;;
61638;SDS011;47544;52.484;4.658;2022-10-22T00:03:29;8.32;;;6.07;;
61638;SDS011;47544;52.484;4.658;2022-10-22T00:03:40;8.07;;;6.10;;
61638;SDS011;47544;52.484;4.658;2022-10-22T00:03:51;8.88;;;6.22;;
61638;SDS011;47544;52.484;4.658;2022-10-22T00:04:02;9.87;;;6.30;;
61638;SDS011;47544;52.484;4.658;2022-10-22T00:04:13;9.90;;;6.28;;
61638;SDS011;47544;52.484;4.658;2022-10-22T00:04:25;10.23;;;6.15;;
61638;SDS011;47544;52.484;4.658;2022-10-22T00:04:36;9.80;;;6.10;;
61638;SDS011;47544;52.484;4.658;2022-10-22T00:04:47;9.63;;;6.20;;
61638;SDS011;47544;52.484;4.658;2022-10-22T00:04:58;9.48;;;6.38;;
61638;SDS011;47544;52.484;4.658;2022-10-22T00:05:09;9.52;;;6.30;;
61638;SDS011;47544;52.484;4.658;2022-10-22T00:05:20;9.48;;;6.10;;
61638;SDS011;47544;52.484;4.658;2022-10-22T00:05:31;9.70;;;5.97;;
61638;SDS011;47544;52.484;4.658;2022-10-22T00:05:42;9.13;;;6.07;;
61638;SDS011;47544;52.484;4.658;2022-10-22T00:05:53;9.27;;;5.95;;
61638;SDS011;47544;52.484;4.658;2022-10-22T00:06:05;8.68;;;5.93;;
61638;SDS011;47544;52.484;4.658;2022-10-22T00:06:16;8.90;;;5.82;;
61638;SDS011;47544;52.484;4.658;2022-10-22T00:06:27;9.68;;;5.93;;
61638;SDS011;47544;52.484;4.658;2022-10-22T00:06:39;10.95;;;6.30;;
61638;SDS011;47544;52.484;4.658;2022-10-22T00:06:52;11.18;;;6.25;;
61638;SDS011;47544;52.484;4.658;2022-10-22T00:07:03;10.57;;;6.03;;
61638;SDS011;47544;52.484;4.658;2022-10-22T00:07:15;10.50;;;6.10;;
61638;SDS011;47544;52.484;4.658;2022-10-22T00:07:26;10.68;;;6.43;;
61638;SDS011;47544;52.484;4.658;2022-10-22T00:07:37;10.15;;;6.47;;
61638;SDS011;47544;52.484;4.658;2022-10-22T00:07:48;10.10;;;6.13;;
61638;SDS011;47544;52.484;4.658;2022-10-22T00:07:59;10.67;;;5.97;;
61638;SDS011;47544;52.484;4.658;2022-10-22T00:08:10;11.85;;;6.20;;
61638;SDS011;47544;52.484;4.658;2022-10-22T00:08:21;11.60;;;6.47;;
61638;SDS011;47544;52.484;4.658;2022-10-22T00:08:33;10.98;;;6.47;;
61638;SDS011;47544;52.484;4.658;2022-10-22T00:08:45;11.32;;;6.53;;
61638;SDS011;47544;52.484;4.658;2022-10-22T00:08:56;11.57;;;6.55;;
61638;SDS011;47544;52.484;4.658;2022-10-22T00:09:07;11.27;;;6.65;;
61638;SDS011;47544;52.484;4.658;2022-10-22T00:09:18;11.02;;;6.60;;
61638;SDS011;47544;52.484;4.658;2022-10-22T00:09:29;10.55;;;6.45;;
61638;SDS011;47544;52.484;4.658;2022-10-22T00:09:40;9.00;;;6.20;;
61638;SDS011;47544;52.484;4.658;2022-10-22T00:09:51;9.23;;;6.18;;
61638;SDS011;47544;52.484;4.658;2022-10-22T00:10:05;11.75;;;6.40;;
61638;SDS011;47544;52.484;4.658;2022-10-22T00:10:17;11.75;;;6.70;;
61638;SDS011;47544;52.484;4.658;2022-10-22T00:10:28;11.45;;;6.50;;
61638;SDS011;47544;52.484;4.658;2022-10-22T00:10:40;9.68;;;6.20;;
61638;SDS011;47544;52.484;4.658;2022-10-22T00:10:51;9.82;;;6.20;;
61638;SDS011;47544;52.484;4.658;2022-10-22T00:11:09;10.70;;;6.20;;
61638;SDS011;47544;52.484;4.658;2022-10-22T00:11:20;11.70;;;6.63;;
61638;SDS011;47544;52.484;4.658;2022-10-22T00:11:32;11.65;;;6.70;;
61638;SDS011;47544;52.484;4.658;2022-10-22T00:11:43;12.50;;;6.80;;
61638;SDS011;47544;52.484;4.658;2022-10-22T00:11:54;11.43;;;6.78;;
61638;SDS011;47544;52.484;4.658;2022-10-22T00:12:05;11.23;;;6.82;;
61638;SDS011;47544;52.484;4.658;2022-10-22T00:12:16;9.63;;;6.57;;
61638;SDS011;47544;52.484;4.658;2022-10-22T00:12:27;10.68;;;6.47;;
61638;SDS011;47544;52.484;4.658;2022-10-22T00:12:38;11.02;;;6.68;;
61638;SDS011;47544;52.484;4.658;2022-10-22T00:12:49;12.43;;;6.72;;
61638;SDS011;47544;52.484;4.658;2022-10-22T00:13:01;12.25;;;6.70;;
61638;SDS011;47544;52.484;4.658;2022-10-22T00:13:12;11.93;;;6.75;;
61638;SDS011;47544;52.484;4.658;2022-10-22T00:13:23;10.57;;;6.57;;
61638;SDS011;47544;52.484;4.658;2022-10-22T00:13:37;10.27;;;6.40;;
61638;SDS011;47544;52.484;4.658;2022-10-22T00:13:47;11.00;;;6.15;;
61638;SDS011;47544;52.484;4.658;2022-10-22T00:13:58;11.55;;;6.30;;
61638;SDS011;47544;52.484;4.658;2022-10-22T00:14:10;11.98;;;6.30;;
61638;SDS011;47544;52.484;4.658;2022-10-22T00:14:22;11.20;;;6.53;;
61638;SDS011;47544;52.484;4.658;2022-10-22T00:14:33;11.80;;;6.60;;
61638;SDS011;47544;52.484;4.658;2022-10-22T00:14:44;11.70;;;6.82;;
61638;SDS011;47544;52.484;4.658;2022-10-22T00:14:55;10.25;;;6.53;;
61638;SDS011;47544;52.484;4.658;2022-10-22T00:15:06;9.40;;;6.43;;
61638;SDS011;47544;52.484;4.658;2022-10-22T00:15:18;10.60;;;6.47;;
61638;SDS011;47544;52.484;4.658;2022-10-22T00:15:29;11.70;;;6.55;;
61638;SDS011;47544;52.484;4.658;2022-10-22T00:15:42;11.52;;;6.50;;
61638;SDS011;47544;52.484;4.658;2022-10-22T00:15:53;10.55;;;6.40;;
61638;SDS011;47544;52.484;4.658;2022-10-22T00:16:05;10.73;;;6.70;;
61638;SDS011;47544;52.484;4.658;2022-10-22T00:16:17;10.65;;;6.80;;
61638;SDS011;47544;52.484;4.658;2022-10-22T00:16:28;10.55;;;6.40;;
61638;SDS011;47544;52.484;4.658;2022-10-22T00:16:39;10.43;;;6.35;;
61638;SDS011;47544;52.484;4.658;2022-10-22T00:16:50;9.65;;;6.13;;
61638;SDS011;47544;52.484;4.658;2022-10-22T00:17:01;10.00;;;6.30;;
61638;SDS011;47544;52.484;4.658;2022-10-22T00:17:12;9.85;;;6.10;;
61638;SDS011;47544;52.484;4.658;2022-10-22T00:17:24;10.68;;;6.15;;
61638;SDS011;47544;52.484;4.658;2022-10-22T00:17:38;10.60;;;6.20;;
61638;SDS011;47544;52.484;4.658;2022-10-22T00:17:49;11.10;;;6.38;;
61638;SDS011;47544;52.484;4.658;2022-10-22T00:18:01;11.05;;;6.50;;
61638;SDS011;47544;52.484;4.658;2022-10-22T00:18:12;11.70;;;6.78;;
61638;SDS011;47544;52.484;4.658;2022-10-22T00:18:23;11.13;;;6.57;;
61638;SDS011;47544;52.484;4.658;2022-10-22T00:18:36;10.90;;;6.28;;
61638;SDS011;47544;52.484;4.658;2022-10-22T00:18:47;10.98;;;6.40;;
61638;SDS011;47544;52.484;4.658;2022-10-22T00:18:59;10.80;;;6.55;;
61638;SDS011;47544;52.484;4.658;2022-10-22T00:19:11;12.90;;;6.60;;
61638;SDS011;47544;52.484;4.658;2022-10-22T00:19:22;14.25;;;6.53;;
61638;SDS011;47544;52.484;4.658;2022-10-22T00:19:33;12.32;;;6.30;;
61638;SDS011;47544;52.484;4.658;2022-10-22T00:19:44;12.10;;;6.18;;
61638;SDS011;47544;52.484;4.658;2022-10-22T00:19:55;14.93;;;6.43;;
61638;SDS011;47544;52.484;4.658;2022-10-22T00:20:07;14.63;;;6.40;;
61638;SDS011;47544;52.484;4.658;2022-10-22T00:20:18;11.90;;;6.47;;
61638;SDS011;47544;52.484;4.658;2022-10-22T00:20:29;10.45;;;6.32;;
61638;SDS011;47544;52.484;4.658;2022-10-22T00:20:42;11.55;;;6.32;;
61638;SDS011;47544;52.484;4.658;2022-10-22T00:20:54;10.82;;;6.20;;
61638;SDS011;47544;52.484;4.658;2022-10-22T00:21:05;10.85;;;6.30;;
61638;SDS011;47544;52.484;4.658;2022-10-22T00:21:16;10.27;;;6.40;;
61638;SDS011;47544;52.484;4.658;2022-10-22T00:21:27;9.55;;;6.20;;
61638;SDS011;47544;52.484;4.658;2022-10-22T00:21:40;8.82;;;6.30;;
61638;SDS011;47544;52.484;4.658;2022-10-22T00:21:51;8.95;;;6.20;;
61638;SDS011;47544;52.484;4.658;2022-10-22T00:22:02;9.10;;;6.20;;
61638;SDS011;47544;52.484;4.658;2022-10-22T00:22:15;9.43;;;6.13;;
61638;SDS011;47544;52.484;4.658;2022-10-22T00:22:27;9.98;;;6.05;;
61638;SDS011;47544;52.484;4.658;2022-10-22T00:22:39;11.30;;;6.27;;
61638;SDS011;47544;52.484;4.658;2022-10-22T00:22:52;11.70;;;6.22;;
61638;SDS011;47544;52.484;4.658;2022-10-22T00:23:03;11.18;;;6.15;;
61638;SDS011;47544;52.484;4.658;2022-10-22T00:23:14;10.48;;;6.15;;
61638;SDS011;47544;52.484;4.658;2022-10-22T00:23:25;10.93;;;6.30;;
61638;SDS011;47544;52.484;4.658;2022-10-22T00:23:40;10.57;;;6.40;;
61638;SDS011;47544;52.484;4.658;2022-10-22T00:23:52;10.95;;;6.45;;
61638;SDS011;47544;52.484;4.658;2022-10-22T00:24:06;11.10;;;6.30;;
61638;SDS011;47544;52.484;4.658;2022-10-22T00:24:18;10.70;;;6.00;;
61638;SDS011;47544;52.484;4.658;2022-10-22T00:24:29;10.05;;;5.85;;
61638;SDS011;47544;52.484;4.658;2022-10-22T00:24:42;10.93;;;5.80;;
61638;SDS011;47544;52.484;4.658;2022-10-22T00:24:53;10.90;;;6.20;;
61638;SDS011;47544;52.484;4.658;2022-10-22T00:25:04;12.05;;;6.22;;
61638;SDS011;47544;52.484;4.658;2022-10-22T00:25:15;11.10;;;6.25;;
61638;SDS011;47544;52.484;4.658;2022-10-22T00:25:27;10.35;;;6.10;;
61638;SDS011;47544;52.484;4.658;2022-10-22T00:25:38;10.75;;;6.13;;
61638;SDS011;47544;52.484;4.658;2022-10-22T00:25:49;11.50;;;6.15;;
61638;SDS011;47544;52.484;4.658;2022-10-22T00:26:00;11.85;;;6.20;;
61638;SDS011;47544;52.484;4.658;2022-10-22T00:26:11;12.73;;;6.20;;
61638;SDS011;47544;52.484;4.658;2022-10-22T00:26:22;12.82;;;6.32;;
61638;SDS011;47544;52.484;4.658;2022-10-22T00:26:33;12.60;;;6.60;;
61638;SDS011;47544;52.484;4.658;2022-10-22T00:26:44;10.50;;;6.35;;
61638;SDS011;47544;52.484;4.658;2022-10-22T00:26:56;9.75;;;6.18;;
61638;SDS011;47544;52.484;4.658;2022-10-22T00:27:07;9.80;;;6.40;;
61638;SDS011;47544;52.484;4.658;2022-10-22T00:27:18;9.65;;;6.50;;
61638;SDS011;47544;52.484;4.658;2022-10-22T00:27:29;10.45;;;6.28;;
61638;SDS011;47544;52.484;4.658;2022-10-22T00:27:42;9.95;;;6.05;;
61638;SDS011;47544;52.484;4.658;2022-10-22T00:27:52;12.65;;;6.15;;
61638;SDS011;47544;52.484;4.658;2022-10-22T00:28:03;12.75;;;6.30;;
61638;SDS011;47544;52.484;4.658;2022-10-22T00:28:14;11.30;;;6.00;;
61638;SDS011;47544;52.484;4.658;2022-10-22T00:28:25;11.02;;;5.88;;
61638;SDS011;47544;52.484;4.658;2022-10-22T00:28:38;12.63;;;6.00;;
61638;SDS011;47544;52.484;4.658;2022-10-22T00:28:49;11.95;;;6.13;;
61638;SDS011;47544;52.484;4.658;2022-10-22T00:28:59;10.07;;;6.20;;
61638;SDS011;47544;52.484;4.658;2022-10-22T00:29:10;10.10;;;6.35;;
61638;SDS011;47544;52.484;4.658;2022-10-22T00:29:24;10.15;;;6.38;;
61638;SDS011;47544;52.484;4.658;2022-10-22T00:29:35;9.73;;;6.15;;
61638;SDS011;47544;52.484;4.658;2022-10-22T00:29:46;9.77;;;5.95;;
61638;SDS011;47544;52.484;4.658;2022-10-22T00:29:58;10.27;;;5.97;;
61638;SDS011;47544;52.484;4.658;2022-10-22T00:30:09;11.20;;;6.30;;
61638;SDS011;47544;52.484;4.658;2022-10-22T00:30:20;11.48;;;6.45;;
61638;SDS011;47544;52.484;4.658;2022-10-22T00:30:31;11.13;;;6.53;;
61638;SDS011;47544;52.484;4.658;2022-10-22T00:30:45;11.63;;;6.53;;
61638;SDS011;47544;52.484;4.658;2022-10-22T00:30:56;10.00;;;6.32;;
61638;SDS011;47544;52.484;4.658;2022-10-22T00:31:07;9.43;;;6.38;;
61638;SDS011;47544;52.484;4.658;2022-10-22T00:31:18;10.52;;;6.40;;
61638;SDS011;47544;52.484;4.658;2022-10-22T00:31:30;11.23;;;6.72;;
61638;SDS011;47544;52.484;4.658;2022-10-22T00:31:41;11.10;;;6.65;;
61638;SDS011;47544;52.484;4.658;2022-10-22T00:31:56;11.63;;;6.80;;
61638;SDS011;47544;52.484;4.658;2022-10-22T00:32:07;10.77;;;6.65;;
61638;SDS011;47544;52.484;4.658;2022-10-22T00:32:18;9.90;;;6.22;;
61638;SDS011;47544;52.484;4.658;2022-10-22T00:32:29;9.15;;;6.28;;
61638;SDS011;47544;52.484;4.658;2022-10-22T00:32:42;9.98;;;6.28;;
61638;SDS011;47544;52.484;4.658;2022-10-22T00:32:56;11.25;;;6.22;;
61638;SDS011;47544;52.484;4.658;2022-10-22T00:33:07;11.73;;;6.10;;
61638;SDS011;47544;52.484;4.658;2022-10-22T00:33:19;11.80;;;6.25;;
61638;SDS011;47544;52.484;4.658;2022-10-22T00:33:30;11.13;;;6.22;;
61638;SDS011;47544;52.484;4.658;2022-10-22T00:33:41;10.35;;;6.28;;
61638;SDS011;47544;52.484;4.658;2022-10-22T00:33:54;10.10;;;6.20;;
61638;SDS011;47544;52.484;4.658;2022-10-22T00:34:05;9.75;;;6.13;;
61638;SDS011;47544;52.484;4.658;2022-10-22T00:34:19;10.80;;;6.25;;
61638;SDS011;47544;52.484;4.658;2022-10-22T00:34:31;12.25;;;6.57;;
61638;SDS011;47544;52.484;4.658;2022-10-22T00:34:42;10.73;;;6.22;;
61638;SDS011;47544;52.484;4.658;2022-10-22T00:34:53;11.68;;;6.30;;
61638;SDS011;47544;52.484;4.658;2022-10-22T00:35:04;11.45;;;6.05;;
61638;SDS011;47544;52.484;4.658;2022-10-22T00:35:15;11.77;;;6.10;;
61638;SDS011;47544;52.484;4.658;2022-10-22T00:35:26;10.18;;;5.78;;
61638;SDS011;47544;52.484;4.658;2022-10-22T00:35:40;9.52;;;5.93;;
61638;SDS011;47544;52.484;4.658;2022-10-22T00:35:51;11.00;;;6.03;;
61638;SDS011;47544;52.484;4.658;2022-10-22T00:36:08;13.63;;;6.20;;
61638;SDS011;47544;52.484;4.658;2022-10-22T00:36:33;11.00;;;6.53;;
61638;SDS011;47544;52.484;4.658;2022-10-22T00:36:43;11.32;;;6.47;;
61638;SDS011;47544;52.484;4.658;2022-10-22T00:36:54;11.40;;;6.17;;
61638;SDS011;47544;52.484;4.658;2022-10-22T00:37:06;10.95;;;6.00;;
61638;SDS011;47544;52.484;4.658;2022-10-22T00:37:17;11.02;;;6.20;;
61638;SDS011;47544;52.484;4.658;2022-10-22T00:37:28;10.65;;;6.40;;
61638;SDS011;47544;52.484;4.658;2022-10-22T00:37:39;10.27;;;6.10;;
61638;SDS011;47544;52.484;4.658;2022-10-22T00:37:50;9.80;;;5.80;;
61638;SDS011;47544;52.484;4.658;2022-10-22T00:38:01;10.37;;;5.97;;
61638;SDS011;47544;52.484;4.658;2022-10-22T00:38:12;11.18;;;6.43;;
61638;SDS011;47544;52.484;4.658;2022-10-22T00:38:23;10.98;;;6.47;;
61638;SDS011;47544;52.484;4.658;2022-10-22T00:38:34;9.85;;;6.30;;
61638;SDS011;47544;52.484;4.658;2022-10-22T00:38:47;8.45;;;6.07;;
61638;SDS011;47544;52.484;4.658;2022-10-22T00:38:58;9.45;;;6.05;;
61638;SDS011;47544;52.484;4.658;2022-10-22T00:39:09;10.65;;;6.20;;
61638;SDS011;47544;52.484;4.658;2022-10-22T00:39:21;11.73;;;6.28;;
61638;SDS011;47544;52.484;4.658;2022-10-22T00:39:32;11.25;;;6.25;;
61638;SDS011;47544;52.484;4.658;2022-10-22T00:39:43;10.50;;;6.20;;
61638;SDS011;47544;52.484;4.658;2022-10-22T00:39:57;10.38;;;6.28;;
61638;SDS011;47544;52.484;4.658;2022-10-22T00:40:09;11.27;;;6.20;;
61638;SDS011;47544;52.484;4.658;2022-10-22T00:40:23;10.23;;;6.05;;
61638;SDS011;47544;52.484;4.658;2022-10-22T00:40:35;9.45;;;5.90;;
61638;SDS011;47544;52.484;4.658;2022-10-22T00:40:46;9.82;;;5.90;;
61638;SDS011;47544;52.484;4.658;2022-10-22T00:40:57;10.20;;;6.10;;
61638;SDS011;47544;52.484;4.658;2022-10-22T00:41:11;9.55;;;6.25;;
61638;SDS011;47544;52.484;4.658;2022-10-22T00:41:22;8.95;;;6.20;;
61638;SDS011;47544;52.484;4.658;2022-10-22T00:41:33;9.35;;;6.18;;
61638;SDS011;47544;52.484;4.658;2022-10-22T00:41:45;10.38;;;6.10;;
61638;SDS011;47544;52.484;4.658;2022-10-22T00:41:58;11.50;;;6.10;;
61638;SDS011;47544;52.484;4.658;2022-10-22T00:42:09;11.43;;;6.10;;
61638;SDS011;47544;52.484;4.658;2022-10-22T00:42:23;10.15;;;6.40;;
61638;SDS011;47544;52.484;4.658;2022-10-22T00:42:34;9.90;;;6.30;;
61638;SDS011;47544;52.484;4.658;2022-10-22T00:42:45;10.82;;;6.03;;
61638;SDS011;47544;52.484;4.658;2022-10-22T00:42:56;10.57;;;6.00;;
61638;SDS011;47544;52.484;4.658;2022-10-22T00:43:09;10.55;;;6.00;;
61638;SDS011;47544;52.484;4.658;2022-10-22T00:43:20;8.50;;;6.05;;
61638;SDS011;47544;52.484;4.658;2022-10-22T00:43:32;8.23;;;6.22;;
61638;SDS011;47544;52.484;4.658;2022-10-22T00:43:52;8.73;;;6.10;;
61638;SDS011;47544;52.484;4.658;2022-10-22T00:44:04;10.60;;;6.15;;
61638;SDS011;47544;52.484;4.658;2022-10-22T00:45:04;9.98;;;6.22;;
61638;SDS011;47544;52.484;4.658;2022-10-22T00:45:18;11.60;;;6.20;;
61638;SDS011;47544;52.484;4.658;2022-10-22T00:45:33;11.38;;;6.45;;
61638;SDS011;47544;52.484;4.658;2022-10-22T00:45:45;11.07;;;6.60;;
61638;SDS011;47544;52.484;4.658;2022-10-22T00:45:56;12.27;;;6.35;;
61638;SDS011;47544;52.484;4.658;2022-10-22T00:46:07;11.73;;;6.40;;
61638;SDS011;47544;52.484;4.658;2022-10-22T00:46:18;10.75;;;6.32;;
61638;SDS011;47544;52.484;4.658;2022-10-22T00:46:29;9.55;;;6.35;;
61638;SDS011;47544;52.484;4.658;2022-10-22T00:46:40;10.63;;;6.45;;
61638;SDS011;47544;52.484;4.658;2022-10-22T00:46:50;9.77;;;6.40;;
61638;SDS011;47544;52.484;4.658;2022-10-22T00:47:02;9.48;;;6.18;;
61638;SDS011;47544;52.484;4.658;2022-10-22T00:47:13;9.80;;;5.93;;
61638;SDS011;47544;52.484;4.658;2022-10-22T00:47:29;10.10;;;6.15;;
61638;SDS011;47544;52.484;4.658;2022-10-22T00:47:42;9.73;;;6.25;;
61638;SDS011;47544;52.484;4.658;2022-10-22T00:47:55;9.70;;;6.28;;
61638;SDS011;47544;52.484;4.658;2022-10-22T00:48:08;10.73;;;6.20;;
61638;SDS011;47544;52.484;4.658;2022-10-22T00:48:24;12.32;;;6.10;;
61638;SDS011;47544;52.484;4.658;2022-10-22T00:48:36;12.00;;;6.28;;
61638;SDS011;47544;52.484;4.658;2022-10-22T00:48:47;10.25;;;6.18;;
61638;SDS011;47544;52.484;4.658;2022-10-22T00:48:59;9.50;;;5.85;;
61638;SDS011;47544;52.484;4.658;2022-10-22T00:49:12;9.55;;;5.80;;
61638;SDS011;47544;52.484;4.658;2022-10-22T00:49:23;9.82;;;6.05;;
61638;SDS011;47544;52.484;4.658;2022-10-22T00:49:34;10.15;;;6.20;;
61638;SDS011;47544;52.484;4.658;2022-10-22T00:49:44;9.85;;;6.07;;
61638;SDS011;47544;52.484;4.658;2022-10-22T00:49:56;9.85;;;6.13;;
61638;SDS011;47544;52.484;4.658;2022-10-22T00:50:08;10.20;;;6.03;;
61638;SDS011;47544;52.484;4.658;2022-10-22T00:50:23;9.90;;;6.13;;
61638;SDS011;47544;52.484;4.658;2022-10-22T00:50:36;9.32;;;6.20;;
61638;SDS011;47544;52.484;4.658;2022-10-22T00:50:48;9.15;;;6.25;;
61638;SDS011;47544;52.484;4.658;2022-10-22T00:51:01;11.43;;;6.20;;
61638;SDS011;47544;52.484;4.658;2022-10-22T00:51:14;11.55;;;6.15;;
61638;SDS011;47544;52.484;4.658;2022-10-22T00:51:27;10.30;;;5.90;;
61638;SDS011;47544;52.484;4.658;2022-10-22T00:51:39;10.80;;;5.80;;
61638;SDS011;47544;52.484;4.658;2022-10-22T00:51:50;9.80;;;6.00;;
61638;SDS011;47544;52.484;4.658;2022-10-22T00:52:01;11.60;;;6.22;;
61638;SDS011;47544;52.484;4.658;2022-10-22T00:52:12;11.88;;;6.22;;
61638;SDS011;47544;52.484;4.658;2022-10-22T00:52:23;11.40;;;6.05;;
61638;SDS011;47544;52.484;4.658;2022-10-22T00:52:34;9.30;;;6.10;;
61638;SDS011;47544;52.484;4.658;2022-10-22T00:52:46;8.85;;;6.03;;
61638;SDS011;47544;52.484;4.658;2022-10-22T00:52:57;10.10;;;6.03;;
61638;SDS011;47544;52.484;4.658;2022-10-22T00:53:10;10.23;;;5.95;;
61638;SDS011;47544;52.484;4.658;2022-10-22T00:53:22;10.40;;;6.03;;
61638;SDS011;47544;52.484;4.658;2022-10-22T00:53:35;10.57;;;6.10;;
61638;SDS011;47544;52.484;4.658;2022-10-22T00:53:48;11.18;;;5.97;;
61638;SDS011;47544;52.484;4.658;2022-10-22T00:54:03;10.05;;;5.55;;
61638;SDS011;47544;52.484;4.658;2022-10-22T00:54:16;9.98;;;5.80;;
61638;SDS011;47544;52.484;4.658;2022-10-22T00:54:27;9.32;;;6.05;;
61638;SDS011;47544;52.484;4.658;2022-10-22T00:54:39;9.15;;;5.63;;
61638;SDS011;47544;52.484;4.658;2022-10-22T00:54:50;10.13;;;5.70;;
61638;SDS011;47544;52.484;4.658;2022-10-22T00:55:02;10.77;;;5.93;;
61638;SDS011;47544;52.484;4.658;2022-10-22T00:55:13;11.15;;;6.10;;
61638;SDS011;47544;52.484;4.658;2022-10-22T00:55:25;11.57;;;5.88;;
61638;SDS011;47544;52.484;4.658;2022-10-22T00:55:36;12.82;;;5.60;;
61638;SDS011;47544;52.484;4.658;2022-10-22T00:55:49;10.80;;;5.50;;
61638;SDS011;47544;52.484;4.658;2022-10-22T00:56:01;11.35;;;5.78;;
61638;SDS011;47544;52.484;4.658;2022-10-22T00:56:13;12.00;;;5.90;;
61638;SDS011;47544;52.484;4.658;2022-10-22T00:56:24;11.27;;;6.07;;
61638;SDS011;47544;52.484;4.658;2022-10-22T00:56:35;12.05;;;6.00;;
61638;SDS011;47544;52.484;4.658;2022-10-22T00:56:49;11.90;;;6.00;;
61638;SDS011;47544;52.484;4.658;2022-10-22T00:57:00;11.93;;;5.78;;
61638;SDS011;47544;52.484;4.658;2022-10-22T00:57:11;11.38;;;5.72;;
61638;SDS011;47544;52.484;4.658;2022-10-22T00:57:22;10.20;;;5.57;;
61638;SDS011;47544;52.484;4.658;2022-10-22T00:57:33;9.45;;;5.53;;
61638;SDS011;47544;52.484;4.658;2022-10-22T00:57:44;9.43;;;5.53;;
61638;SDS011;47544;52.484;4.658;2022-10-22T00:57:56;9.38;;;5.57;;
61638;SDS011;47544;52.484;4.658;2022-10-22T00:58:08;9.57;;;5.22;;
61638;SDS011;47544;52.484;4.658;2022-10-22T00:58:20;9.52;;;5.28;;
61638;SDS011;47544;52.484;4.658;2022-10-22T00:58:34;10.32;;;5.63;;
61638;SDS011;47544;52.484;4.658;2022-10-22T00:58:46;10.05;;;5.75;;
61638;SDS011;47544;52.484;4.658;2022-10-22T00:58:58;11.45;;;5.70;;
61638;SDS011;47544;52.484;4.658;2022-10-22T00:59:10;10.65;;;5.47;;
61638;SDS011;47544;52.484;4.658;2022-10-22T00:59:22;10.93;;;5.70;;
61638;SDS011;47544;52.484;4.658;2022-10-22T00:59:34;10.52;;;5.97;;
61638;SDS011;47544;52.484;4.658;2022-10-22T00:59:46;10.13;;;6.00;;
61638;SDS011;47544;52.484;4.658;2022-10-22T00:59:57;9.45;;;5.70;;
61638;SDS011;47544;52.484;4.658;2022-10-22T01:00:09;9.98;;;5.60;;
61638;SDS011;47544;52.484;4.658;2022-10-22T01:00:20;9.38;;;5.60;;
61638;SDS011;47544;52.484;4.658;2022-10-22T01:00:34;10.18;;;5.55;;
61638;SDS011;47544;52.484;4.658;2022-10-22T01:00:46;9.55;;;5.50;;
61638;SDS011;47544;52.484;4.658;2022-10-22T01:00:57;10.52;;;5.40;;
61638;SDS011;47544;52.484;4.658;2022-10-22T01:01:08;11.00;;;5.60;;
61638;SDS011;47544;52.484;4.658;2022-10-22T01:01:22;12.10;;;5.88;;
61638;SDS011;47544;52.484;4.658;2022-10-22T01:01:34;11.68;;;5.95;;
61638;SDS011;47544;52.484;4.658;2022-10-22T01:01:45;11.10;;;5.60;;
61638;SDS011;47544;52.484;4.658;2022-10-22T01:01:56;10.68;;;5.60;;
61638;SDS011;47544;52.484;4.658;2022-10-22T01:02:07;10.73;;;5.70;;
61638;SDS011;47544;52.484;4.658;2022-10-22T01:02:18;10.30;;;5.95;;
61638;SDS011;47544;52.484;4.658;2022-10-22T01:02:30;9.93;;;5.75;;
61638;SDS011;47544;52.484;4.658;2022-10-22T01:02:41;9.77;;;5.60;;
61638;SDS011;47544;52.484;4.658;2022-10-22T01:02:52;10.48;;;5.55;;
61638;SDS011;47544;52.484;4.658;2022-10-22T01:03:03;10.85;;;5.60;;
61638;SDS011;47544;52.484;4.658;2022-10-22T01:03:14;10.18;;;5.80;;
61638;SDS011;47544;52.484;4.658;2022-10-22T01:03:25;9.35;;;5.55;;
61638;SDS011;47544;52.484;4.658;2022-10-22T01:03:36;10.00;;;5.40;;
61638;SDS011;47544;52.484;4.658;2022-10-22T01:03:48;10.02;;;5.18;;
61638;SDS011;47544;52.484;4.658;2022-10-22T01:04:00;11.25;;;5.43;;
61638;SDS011;47544;52.484;4.658;2022-10-22T01:04:13;10.25;;;5.43;;
61638;SDS011;47544;52.484;4.658;2022-10-22T01:04:24;9.68;;;5.43;;
61638;SDS011;47544;52.484;4.658;2022-10-22T01:04:35;10.15;;;5.60;;
61638;SDS011;47544;52.484;4.658;2022-10-22T01:04:46;10.25;;;5.60;;
61638;SDS011;47544;52.484;4.658;2022-10-22T01:04:57;10.23;;;5.57;;
61638;SDS011;47544;52.484;4.658;2022-10-22T01:05:08;11.00;;;5.70;;
61638;SDS011;47544;52.484;4.658;2022-10-22T01:05:20;10.90;;;5.50;;
61638;SDS011;47544;52.484;4.658;2022-10-22T01:05:37;9.68;;;5.32;;
61638;SDS011;47544;52.484;4.658;2022-10-22T01:05:50;10.70;;;5.50;;
61638;SDS011;47544;52.484;4.658;2022-10-22T01:06:04;11.45;;;5.60;;
61638;SDS011;47544;52.484;4.658;2022-10-22T01:06:17;10.60;;;5.45;;
61638;SDS011;47544;52.484;4.658;2022-10-22T01:06:29;9.38;;;4.93;;
61638;SDS011;47544;52.484;4.658;2022-10-22T01:06:41;9.02;;;4.75;;
61638;SDS011;47544;52.484;4.658;2022-10-22T01:06:53;8.57;;;4.72;;
61638;SDS011;47544;52.484;4.658;2022-10-22T01:07:06;8.73;;;4.80;;
61638;SDS011;47544;52.484;4.658;2022-10-22T01:07:17;8.57;;;4.80;;
61638;SDS011;47544;52.484;4.658;2022-10-22T01:07:29;8.52;;;4.72;;
61638;SDS011;47544;52.484;4.658;2022-10-22T01:07:41;7.57;;;4.57;;
61638;SDS011;47544;52.484;4.658;2022-10-22T01:07:52;8.68;;;4.80;;
61638;SDS011;47544;52.484;4.658;2022-10-22T01:08:04;9.77;;;5.03;;
61638;SDS011;47544;52.484;4.658;2022-10-22T01:08:18;9.43;;;5.00;;
61638;SDS011;47544;52.484;4.658;2022-10-22T01:08:35;10.07;;;5.15;;
61638;SDS011;47544;52.484;4.658;2022-10-22T01:08:54;10.60;;;5.30;;
61638;SDS011;47544;52.484;4.658;2022-10-22T01:09:11;13.15;;;5.40;;
61638;SDS011;47544;52.484;4.658;2022-10-22T01:09:27;10.05;;;4.95;;
61638;SDS011;47544;52.484;4.658;2022-10-22T01:09:41;8.02;;;5.03;;
61638;SDS011;47544;52.484;4.658;2022-10-22T01:09:58;8.38;;;5.15;;
61638;SDS011;47544;52.484;4.658;2022-10-22T01:10:15;8.60;;;4.75;;
61638;SDS011;47544;52.484;4.658;2022-10-22T01:10:35;8.25;;;4.93;;
61638;SDS011;47544;52.484;4.658;2022-10-22T01:10:51;8.75;;;5.13;;
61638;SDS011;47544;52.484;4.658;2022-10-22T01:11:06;11.02;;;5.07;;
61638;SDS011;47544;52.484;4.658;2022-10-22T01:11:20;11.85;;;5.13;;
61638;SDS011;47544;52.484;4.658;2022-10-22T01:11:39;10.07;;;4.75;;
61638;SDS011;47544;52.484;4.658;2022-10-22T01:11:57;8.77;;;4.90;;
61638;SDS011;47544;52.484;4.658;2022-10-22T01:12:14;9.65;;;5.22;;
61638;SDS011;47544;52.484;4.658;2022-10-22T01:12:30;10.07;;;5.20;;
61638;SDS011;47544;52.484;4.658;2022-10-22T01:12:48;12.27;;;5.20;;
61638;SDS011;47544;52.484;4.658;2022-10-22T01:13:11;12.52;;;5.28;;